Аэропорт: Сокол. Магадан

ICAO: UHMM

METAR:
2019-07-24 01:00:00
UHMM 240100Z 27003MPS 230V320 9999 NSC 18/02 Q1011 R10/70D NOSIG RMK QFE743
METAR:
2019-07-23 22:50:00
TAF UHMM 232250Z 2400/2506 25003G10MPS 9999 SCT040 TEMPO 2400/2412 29003G08MPS